Latest Weather Observations for Redcliffe

IDQ60901

Issued at 6:21 pm EST Thursday 9 April 2020 (issued every 10 minutes, with the page automatically refreshed every 10 minutes)

About weather observations | Map of Brisbane area stations | Latest observations for Brisbane area | Other Formats
Station Details ID: 040958 Name: REDCLIFFE Lat: -27.22 Lon: 153.09 Height: 12.6 m
Data from the previous 72 hours. | See also: Recent months at Redcliffe
Date/Time
EST
Temp
°C
App
Temp
°C
Dew
Point
°C
Rel
Hum
%
Delta-T
°C
Wind Press
QNH
hPa
Press
MSL
hPa
Rain since
9am
mm
Dir  Spd
km/h
Gust
km/h
Spd
kts
Gust
kts
09/06:00pm 22.9 19.6 18.0 74 3.1 ESE 32 35 17 19 1021.6 1021.5 0.0
09/05:30pm 23.3 19.9 17.7 71 3.5 SE 32 37 17 20 1021.5 1021.4 0.0
09/05:00pm 23.6 19.9 16.9 66 4.1 SE 32 35 17 19 1021.3 1021.2 0.0
09/04:30pm 23.9 19.8 16.4 63 4.6 SSE 33 39 18 21 1021.2 1021.1 0.0
09/04:00pm 24.3 20.0 16.8 63 4.6 SE 35 39 19 21 1021.0 1020.9 0.0
09/03:30pm 24.6 20.8 17.3 64 4.5 SSE 33 39 18 21 1021.1 1021.0 0.0
09/03:00pm 24.4 20.4 17.6 66 4.2 SSE 35 41 19 22 1021.0 1020.9 0.0
09/02:30pm 24.2 20.1 17.4 65 4.2 SSE 35 41 19 22 1021.1 1021.0 0.0
09/02:00pm 24.7 20.1 17.9 66 4.3 SSE 39 44 21 24 1021.2 1021.1 0.0
09/01:30pm 24.6 20.8 17.1 63 4.6 SSE 33 39 18 21 1021.2 1021.1 0.0
09/01:00pm 25.2 21.8 18.9 68 4.0 SSE 35 39 19 21 1021.5 1021.4 0.0
09/12:30pm 24.9 21.2 18.4 67 4.1 SSE 35 39 19 21 1022.0 1021.9 0.0
09/12:00pm 24.9 21.8 17.4 63 4.7 SSE 30 35 16 19 1022.4 1022.3 0.0
09/11:30am 24.2 21.4 17.4 65 4.2 SSE 28 33 15 18 1022.8 1022.7 0.0
09/11:00am 22.5 19.3 18.5 78 2.5 SSE 33 43 18 23 1023.4 1023.3 0.0
09/10:30am 25.2 21.1 17.4 62 4.9 SSE 35 39 19 21 1023.4 1023.3 0.0
09/10:00am 25.5 22.6 18.9 67 4.2 SSE 32 35 17 19 1023.4 1023.3 0.0
09/09:30am 24.1 22.0 17.1 65 4.3 S 24 28 13 15 1023.3 1023.2 0.0
09/09:00am 23.7 21.3 17.4 68 3.9 S 26 30 14 16 1023.4 1023.3 5.6
09/08:30am 22.8 21.1 17.3 71 3.4 S 22 28 12 15 1023.0 1022.9 5.6
09/08:00am 21.7 21.2 17.9 79 2.4 S 17 24 9 13 1022.8 1022.7 5.6
09/07:30am 20.3 19.4 18.2 88 1.3 S 20 24 11 13 1022.6 1022.5 5.6
09/07:00am 20.1 18.6 18.6 91 0.9 S 24 30 13 16 1022.2 1022.1 5.6
09/06:30am 19.8 17.5 17.6 87 1.3 S 26 30 14 16 1021.7 1021.6 5.6
09/06:00am 19.5 19.0 18.7 95 0.5 S 19 28 10 15 1021.3 1021.2 5.6
09/05:30am 19.3 19.8 18.3 94 0.6 SW 13 19 7 10 1021.1 1021.0 5.4
09/05:00am 19.6 16.5 18.4 93 0.7 SSE 32 35 17 19 1021.1 1021.0 5.4
09/04:44am 21.0 16.7 17.8 82 2.0 SSE 37 50 20 27 1020.7 1020.6 5.0
09/04:30am 21.1 17.1 17.5 80 2.2 S 35 39 19 21 1020.5 1020.4 5.0
09/04:00am 21.2 16.6 17.2 78 2.4 SSE 37 43 20 23 1020.2 1020.1 5.0
09/03:30am 21.5 17.9 17.3 77 2.6 S 32 41 17 22 1020.2 1020.1 5.0
09/03:00am 21.3 19.2 17.1 77 2.6 S 24 30 13 16 1020.0 1019.9 5.0
09/02:30am 21.5 19.2 17.5 78 2.5 S 26 30 14 16 1019.7 1019.6 5.0
09/02:00am 21.4 19.9 17.6 79 2.3 S 22 30 12 16 1019.8 1019.7 5.0
09/01:30am 21.4 20.5 17.8 80 2.2 S 19 24 10 13 1019.9 1019.8 5.0
09/01:00am 21.3 19.5 17.9 81 2.1 S 24 32 13 17 1020.1 1020.0 5.0
09/12:30am 21.6 20.9 18.2 81 2.1 S 19 28 10 15 1020.2 1020.1 5.0
09/12:00am 21.9 18.6 17.9 78 2.5 S 32 37 17 20 1020.3 1020.2 5.0
 
Date/Time
EST
Temp
°C
App
Temp
°C
Dew
Point
°C
Rel
Hum
%
Delta-T
°C
Wind Press
QNH
hPa
Press
MSL
hPa
Rain since
9am
mm
Dir  Spd
km/h
Gust
km/h
Spd
kts
Gust
kts
08/11:30pm 21.6 19.2 18.2 81 2.1 S 28 33 15 18 1020.3 1020.2 5.0
08/11:00pm 21.6 18.5 18.8 84 1.8 S 33 37 18 20 1020.4 1020.3 5.0
08/10:30pm 21.9 19.5 18.3 80 2.3 S 28 33 15 18 1020.3 1020.2 5.0
08/10:00pm 22.0 20.0 18.4 80 2.2 S 26 32 14 17 1020.5 1020.4 5.0
08/09:30pm 22.7 19.6 17.4 72 3.3 S 30 50 16 27 1020.4 1020.3 5.0
08/09:20pm 23.5 20.6 17.0 67 4.0 SE 28 50 15 27 1020.3 1020.2 5.0
08/09:00pm 23.4 20.8 16.9 67 4.0 SE 26 30 14 16 1020.3 1020.2 5.0
08/08:30pm 23.5 20.1 16.8 66 4.1 SE 30 33 16 18 1020.1 1020.0 5.0
08/08:00pm 23.5 20.5 16.8 66 4.1 SE 28 33 15 18 1020.1 1020.0 5.0
08/07:30pm 23.4 20.0 16.7 66 4.1 SE 30 35 16 19 1019.6 1019.5 5.0
08/07:00pm 23.5 19.9 16.3 64 4.4 SE 30 35 16 19 1019.3 1019.2 5.0
08/06:30pm 23.3 19.5 16.8 67 4.0 SE 32 37 17 20 1018.8 1018.7 5.0
08/06:00pm 23.5 19.7 16.8 66 4.1 SE 32 37 17 20 1018.4 1018.3 5.0
08/05:30pm 23.5 19.4 16.5 65 4.3 SE 33 41 18 22 1018.1 1018.0 5.0
08/05:00pm 23.7 19.4 17.0 66 4.1 SE 35 39 19 21 1017.7 1017.6 5.0
08/04:30pm 23.8 20.2 17.3 67 4.0 SE 32 37 17 20 1017.5 1017.4 5.0
08/04:00pm 23.6 19.8 17.3 67 3.9 SE 33 39 18 21 1017.3 1017.2 5.0
08/03:30pm 23.5 20.9 18.6 74 3.1 SE 30 39 16 21 1017.3 1017.2 4.8
08/03:00pm 23.0 19.6 18.1 74 3.1 SE 33 37 18 20 1017.2 1017.1 4.8
08/02:30pm 22.6 19.2 19.8 84 1.8 SSE 37 43 20 23 1017.2 1017.1 4.8
08/02:00pm 20.7 20.3 19.4 92 0.8 SSE 20 32 11 17 1017.5 1017.4 4.8
08/01:30pm 19.9 16.8 18.9 94 0.6 SE 33 39 18 21 1017.8 1017.7 4.4
08/01:00pm 20.2 15.8 19.4 95 0.5 SE 41 50 22 27 1018.0 1017.9 2.4
08/12:41pm 22.1 18.4 18.3 79 2.4 ESE 35 50 19 27 1017.8 1017.7 0.0
08/12:30pm 24.2 21.4 18.2 69 3.8 SSE 30 35 16 19 1017.9 1017.8 0.0
08/12:00pm 24.1 20.6 17.8 68 3.9 SSE 33 39 18 21 1018.3 1018.2 0.0
08/11:30am 24.2 20.7 17.9 68 3.9 SSE 33 43 18 23 1018.7 1018.6 0.0
08/11:00am 23.8 20.9 18.0 70 3.6 SSE 30 33 16 18 1019.1 1019.0 0.0
08/10:30am 23.4 20.7 18.5 74 3.1 SSE 30 37 16 20 1019.1 1019.0 0.0
08/10:00am 23.3 21.0 18.4 74 3.1 SSE 28 32 15 17 1019.0 1018.9 0.0
08/09:30am 23.6 21.3 18.5 73 3.2 S 28 32 15 17 1019.0 1018.9 0.0
08/09:00am 22.2 19.4 18.2 78 2.5 S 30 35 16 19 1019.0 1018.9 3.8
08/08:30am 21.7 18.6 17.5 77 2.6 S 30 37 16 20 1018.9 1018.8 3.8
08/08:00am 21.0 19.0 17.4 80 2.2 S 24 32 13 17 1018.5 1018.4 3.8
08/07:30am 20.2 17.4 17.2 83 1.8 S 28 33 15 18 1018.1 1018.0 3.8
08/07:00am 19.7 17.1 17.7 88 1.2 S 28 35 15 19 1017.7 1017.6 3.8
08/06:30am 18.8 17.3 17.6 93 0.7 SSW 22 32 12 17 1017.4 1017.3 3.8
08/06:00am 18.5 18.3 17.5 94 0.6 SW 15 24 8 13 1017.1 1017.0 3.8
08/05:30am 18.5 19.2 17.9 96 0.4 SW 11 15 6 8 1016.9 1016.8 3.8
08/05:00am 18.5 18.9 18.2 98 0.2 SW 13 15 7 8 1016.6 1016.5 3.8
08/04:30am 18.5 19.4 18.3 99 0.1 WSW 11 15 6 8 1016.4 1016.3 3.6
08/04:00am 18.5 18.2 18.3 99 0.1 SW 17 20 9 11 1016.2 1016.1 3.6
08/03:30am 18.5 19.0 18.3 99 0.1 SW 13 19 7 10 1016.2 1016.1 3.4
08/03:00am 18.8 18.6 18.6 99 0.1 SW 17 20 9 11 1016.3 1016.2 3.2
08/02:30am 18.9 19.2 18.7 99 0.1 SSW 15 20 8 11 1016.7 1016.6 3.0
08/02:00am 18.9 18.8 18.7 99 0.1 SSW 17 24 9 13 1016.9 1016.8 2.8
08/01:30am 18.9 19.5 18.6 98 0.2 SW 13 17 7 9 1017.2 1017.1 1.8
08/01:00am 19.0 19.2 18.5 97 0.3 SW 15 19 8 10 1017.2 1017.1 0.4
08/12:30am 19.1 19.6 18.4 96 0.4 SW 13 19 7 10 1017.3 1017.2 0.2
08/12:00am 19.6 18.8 18.4 93 0.7 SSW 20 30 11 16 1017.6 1017.5 0.0
 
Date/Time
EST
Temp
°C
App
Temp
°C
Dew
Point
°C
Rel
Hum
%
Delta-T
°C
Wind Press
QNH
hPa
Press
MSL
hPa
Rain since
9am
mm
Dir  Spd
km/h
Gust
km/h
Spd
kts
Gust
kts
07/11:30pm 19.6 18.4 18.3 92 0.8 SSW 22 30 12 16 1017.7 1017.6 0.0
07/11:00pm 20.1 16.4 18.4 90 1.1 S 35 46 19 25 1017.9 1017.8 0.0
07/10:30pm 20.5 16.7 18.1 86 1.5 SSE 35 41 19 22 1018.0 1017.9 0.0
07/10:00pm 21.6 17.1 17.4 77 2.6 S 37 43 20 23 1017.8 1017.7 0.0
07/09:30pm 21.8 16.9 17.4 76 2.7 SSE 39 48 21 26 1017.7 1017.6 0.0
07/09:00pm 22.3 16.1 16.3 69 3.6 SSE 44 52 24 28 1017.5 1017.4 0.0
07/08:30pm 22.6 17.3 16.2 67 3.9 SSE 39 46 21 25 1017.5 1017.4 0.0
07/08:00pm 23.1 18.1 16.2 65 4.2 SSE 37 44 20 24 1017.1 1017.0 0.0
07/07:30pm 23.5 19.3 16.1 63 4.5 S 33 43 18 23 1016.8 1016.7 0.0
07/07:00pm 23.6 18.5 16.9 66 4.1 SSE 39 46 21 25 1016.4 1016.3 0.0
07/06:30pm 23.9 18.5 16.9 65 4.3 SSE 41 46 22 25 1015.9 1015.8 0.0
07/06:00pm 23.8 18.9 17.3 67 4.0 SSE 39 48 21 26 1015.5 1015.4 0.0
07/05:30pm 24.1 20.3 18.1 69 3.8 SE 35 39 19 21 1015.2 1015.1 0.0
07/05:00pm 24.2 20.7 17.9 68 3.9 SE 33 37 18 20 1015.0 1014.9 0.0
07/04:30pm 24.6 21.5 17.6 65 4.4 SE 30 35 16 19 1015.0 1014.9 0.0
07/04:00pm 25.0 21.8 16.4 59 5.3 SE 28 32 15 17 1014.8 1014.7 0.0
07/03:30pm 25.1 22.5 16.0 57 5.5 ESE 24 30 13 16 1014.8 1014.7 0.0
07/03:00pm 25.3 22.9 15.3 54 6.0 ESE 22 26 12 14 1014.9 1014.8 0.0
07/02:30pm 25.3 22.3 14.7 51 6.3 ESE 24 30 13 16 1014.9 1014.8 0.0
07/02:00pm 25.5 22.6 16.1 56 5.7 ESE 26 32 14 17 1015.1 1015.0 0.0
07/01:30pm 25.6 22.7 17.0 59 5.3 SE 28 32 15 17 1015.4 1015.3 0.0
07/01:00pm 25.7 21.9 16.8 58 5.5 SE 32 33 17 18 1015.7 1015.6 0.0
07/12:30pm 25.6 21.9 15.9 55 5.9 SE 30 35 16 19 1016.1 1016.0 0.0
07/12:00pm 25.2 21.2 16.1 57 5.6 SE 32 37 17 20 1016.6 1016.5 0.0
07/11:30am 25.0 20.9 15.9 57 5.5 SE 32 35 17 19 1017.1 1017.0 0.0
07/11:00am 25.7 22.6 16.5 56 5.7 SE 28 33 15 18 1017.7 1017.6 0.0
07/10:30am 25.3 21.9 15.9 56 5.7 SSE 28 32 15 17 1017.9 1017.8 0.0
07/10:00am 24.9 22.4 16.1 58 5.4 SSE 24 28 13 15 1018.1 1018.0 0.0
07/09:30am 24.8 21.9 16.0 58 5.4 S 26 32 14 17 1018.1 1018.0 0.0
07/09:00am 24.0 21.3 15.5 59 5.1 S 24 32 13 17 1018.2 1018.1 0.0
07/08:30am 23.7 21.2 16.2 63 4.6 S 24 30 13 16 1018.1 1018.0 0.0
07/08:00am 22.7 20.9 16.0 66 4.0 SSW 20 28 11 15 1017.8 1017.7 0.0
07/07:30am 21.6 20.1 16.3 72 3.2 SSW 19 26 10 14 1017.4 1017.3 0.0
07/07:00am 20.2 18.7 16.4 79 2.3 SSW 19 28 10 15 1016.9 1016.8 0.0
07/06:30am 19.0 17.8 16.0 83 1.8 SSW 17 22 9 12 1016.7 1016.6 0.0
07/06:00am 19.1 17.5 16.1 83 1.8 SSW 19 26 10 14 1016.5 1016.4 0.0
07/05:30am 19.0 17.8 16.0 83 1.8 SSW 17 24 9 13 1016.3 1016.2 0.0
07/05:00am 19.0 18.2 16.0 83 1.8 SSW 15 22 8 12 1016.0 1015.9 0.0
07/04:30am 19.3 18.5 16.0 81 2.0 SSW 15 22 8 12 1015.7 1015.6 0.0
07/04:00am 19.2 18.0 16.1 82 1.8 SSW 17 24 9 13 1015.5 1015.4 0.0
07/03:30am 19.6 17.9 16.3 81 2.0 S 20 28 11 15 1015.6 1015.5 0.0
07/03:00am 19.5 19.1 16.2 81 2.0 SSW 13 19 7 10 1015.5 1015.4 0.0
07/02:30am 19.8 18.7 16.3 80 2.1 SSW 17 24 9 13 1015.7 1015.6 0.0
07/02:00am 20.4 19.3 16.4 78 2.4 SSW 17 24 9 13 1015.8 1015.7 0.0
07/01:30am 21.6 19.4 17.0 75 2.8 S 24 30 13 16 1016.0 1015.9 0.0
07/01:00am 21.7 19.9 16.9 74 2.9 S 22 28 12 15 1016.3 1016.2 0.0
07/12:30am 22.3 20.4 17.7 75 2.9 S 24 30 13 16 1016.4 1016.3 0.0
07/12:00am 22.1 20.8 18.1 78 2.5 SSE 22 26 12 14 1016.6 1016.5 0.0
 
Date/Time
EST
Temp
°C
App
Temp
°C
Dew
Point
°C
Rel
Hum
%
Delta-T
°C
Wind Press
QNH
hPa
Press
MSL
hPa
Rain since
9am
mm
Dir  Spd
km/h
Gust
km/h
Spd
kts
Gust
kts
06/11:30pm 21.9 21.0 17.7 77 2.6 S 19 24 10 13 1016.7 1016.6 0.0
06/11:00pm 23.0 21.5 17.7 72 3.3 S 22 37 12 20 1016.8 1016.7 0.0
06/10:30pm 23.5 21.5 17.5 69 3.7 SE 24 28 13 15 1016.9 1016.8 0.0
06/10:00pm 23.4 21.3 17.2 68 3.8 SE 24 28 13 15 1016.9 1016.8 0.0
06/09:30pm 23.3 21.7 17.5 70 3.6 SE 22 26 12 14 1016.9 1016.8 0.0
06/09:00pm 23.3 22.1 17.5 70 3.6 SE 20 26 11 14 1016.8 1016.7 0.0
06/08:30pm 23.3 22.0 17.3 69 3.7 SE 20 26 11 14 1016.7 1016.6 0.0
06/08:00pm 23.3 21.7 17.5 70 3.6 SE 22 26 12 14 1016.6 1016.5 0.0
06/07:30pm 23.3 21.0 17.7 71 3.5 SE 26 30 14 16 1016.3 1016.2 0.0
06/07:00pm 23.4 21.2 17.8 71 3.5 SE 26 32 14 17 1015.8 1015.7 0.0
06/06:30pm 23.5 21.2 18.4 73 3.2 SE 28 32 15 17 1015.4 1015.3 0.0

Latest Capital City Observations: Canberra | Sydney | Melbourne | Brisbane | Adelaide | Perth | Hobart | Darwin

Other formats

Comma delimited format used in spreadsheet applications
http://www.bom.gov.au/fwo/IDQ60901/IDQ60901.95591.axf

JavaScript Object Notation format (JSON) in row-major order
http://www.bom.gov.au/fwo/IDQ60901/IDQ60901.95591.json

Data quality

Most of these data are generated automatically and are frequently updated. Quality checks on data are not normally performed. It is possible for incorrect values to appear. Refer to information at About Latest Weather Observations and please check the disclaimer before using these data.